Řízení letového provozu České republiky
Letiste: LKKV Aktualizace: 16.12.2017 22:08:11  UTC
 METAR LKKV 16.12. 22:00 ...
METAR LKKV 162200Z 25009KT 9999 SCT006 OVC015 M01/M01 Q1012 R29/////// RMK REG QNH 1008=
 TAF LKKV 16.12. 17:00 ...
TAF LKKV 161700Z 1618/1800 25004KT 9999 BKN015      TEMPO 1618/1800 4000 -SN BKN005      PROB30 TEMPO 1620/1708 1400 SN BKN002      PROB30 TEMPO 1708/1720 1400 SHSN FEW002TCU BKN003=